createdAt,value
2019-05-29T00:11:10.193Z,8.00
2019-05-29T00:12:59.604Z,8.00
2019-05-29T00:14:59.595Z,8.00
2019-05-29T00:15:59.576Z,8.00
2019-05-29T00:32:59.402Z,12.00
2019-05-29T00:38:59.343Z,12.00
2019-05-29T00:42:11.005Z,12.00
2019-05-29T00:45:59.259Z,16.00
2019-05-29T00:46:59.246Z,16.00
2019-05-29T00:47:59.239Z,16.00
2019-05-29T00:48:59.227Z,16.00
2019-05-29T00:50:59.215Z,16.00
2019-05-29T00:51:59.191Z,16.00
2019-05-29T00:52:59.192Z,20.00
2019-05-29T00:53:59.184Z,16.00
2019-05-29T00:54:59.160Z,20.00
2019-05-29T00:55:59.167Z,16.00
2019-05-29T00:56:59.193Z,20.00
2019-05-29T00:57:59.688Z,20.00
2019-05-29T00:58:59.120Z,24.00
2019-05-29T00:59:59.151Z,24.00
2019-05-29T01:00:59.103Z,24.00
2019-05-29T01:01:59.094Z,20.00
2019-05-29T01:02:59.066Z,24.00
2019-05-29T01:03:59.070Z,28.00
2019-05-29T01:04:59.063Z,24.00
2019-05-29T01:05:59.065Z,24.00
2019-05-29T01:06:59.034Z,28.00
2019-05-29T01:07:59.022Z,28.00
2019-05-29T01:08:59.029Z,28.00
2019-05-29T01:09:58.982Z,28.00
2019-05-29T01:10:59.003Z,32.00
2019-05-29T01:11:59.007Z,32.00
2019-05-29T01:13:08.983Z,36.00
2019-05-29T01:13:58.944Z,40.00
2019-05-29T01:14:58.938Z,40.00
2019-05-29T01:15:58.934Z,40.00
2019-05-29T01:16:58.913Z,40.00
2019-05-29T01:17:58.904Z,36.00
2019-05-29T01:18:58.905Z,32.00
2019-05-29T01:19:58.895Z,32.00
2019-05-29T01:21:58.862Z,36.00
2019-05-29T01:22:58.858Z,40.00
2019-05-29T01:23:58.845Z,40.00
2019-05-29T01:24:58.834Z,44.00
2019-05-29T01:25:58.825Z,44.00
2019-05-29T01:26:58.904Z,48.00
2019-05-29T01:27:58.805Z,48.00
2019-05-29T01:28:58.791Z,48.00
2019-05-29T01:29:58.795Z,48.00
2019-05-29T01:30:58.768Z,48.00
2019-05-29T01:31:58.762Z,44.00
2019-05-29T01:32:58.775Z,48.00
2019-05-29T01:33:58.741Z,44.00
2019-05-29T01:34:58.750Z,48.00
2019-05-29T01:35:58.748Z,44.00
2019-05-29T01:36:58.724Z,44.00
2019-05-29T01:37:58.742Z,44.00
2019-05-29T01:38:58.693Z,44.00
2019-05-29T01:39:58.670Z,48.00
2019-05-29T01:40:58.734Z,48.00
2019-05-29T01:41:58.647Z,48.00
2019-05-29T01:42:58.638Z,52.00
2019-05-29T01:44:08.918Z,52.00
2019-05-29T01:45:07.630Z,52.00
2019-05-29T01:45:59.604Z,52.00
2019-05-29T01:46:58.594Z,56.00
2019-05-29T01:47:58.597Z,52.00
2019-05-29T01:48:58.574Z,56.00
2019-05-29T01:49:58.589Z,60.00
2019-05-29T01:50:58.558Z,64.00
2019-05-29T01:52:58.545Z,72.00
2019-05-29T01:53:58.536Z,84.00
2019-05-29T01:54:58.527Z,84.00
2019-05-29T01:55:58.515Z,84.00
2019-05-29T01:56:58.490Z,84.00
2019-05-29T01:57:58.484Z,84.00
2019-05-29T01:58:58.498Z,88.00
2019-05-29T01:59:58.465Z,92.00
2019-05-29T02:00:58.468Z,88.00
2019-05-29T02:01:58.435Z,88.00
2019-05-29T02:02:58.457Z,100.00
2019-05-29T02:03:58.444Z,92.00
2019-05-29T02:04:58.431Z,92.00
2019-05-29T02:05:58.418Z,100.00
2019-05-29T02:06:58.391Z,112.00
2019-05-29T02:07:58.396Z,116.00
2019-05-29T02:08:58.401Z,116.00
2019-05-29T02:09:58.367Z,132.00
2019-05-29T02:10:58.348Z,148.00
2019-05-29T02:11:58.346Z,148.00
2019-05-29T02:12:58.331Z,148.00
2019-05-29T02:13:58.334Z,160.00
2019-05-29T02:15:23.013Z,164.00
2019-05-29T02:15:59.288Z,172.00
2019-05-29T02:16:58.279Z,168.00
2019-05-29T02:17:58.259Z,172.00
2019-05-29T02:18:58.269Z,172.00
2019-05-29T02:19:58.263Z,164.00
2019-05-29T02:20:58.238Z,164.00
2019-05-29T02:21:58.240Z,176.00
2019-05-29T02:23:58.243Z,208.00
2019-05-29T02:24:58.220Z,212.00
2019-05-29T02:25:58.197Z,200.00
2019-05-29T02:26:58.180Z,188.00
2019-05-29T02:27:58.170Z,172.00
2019-05-29T02:28:58.169Z,172.00
2019-05-29T02:29:58.201Z,168.00
2019-05-29T02:30:58.154Z,164.00
2019-05-29T02:31:58.140Z,180.00
2019-05-29T02:32:58.117Z,196.00
2019-05-29T02:33:58.107Z,208.00
2019-05-29T02:34:58.112Z,236.00
2019-05-29T02:35:58.121Z,276.00
2019-05-29T02:36:58.081Z,312.00
2019-05-29T02:37:58.112Z,336.00
2019-05-29T02:38:58.075Z,328.00
2019-05-29T02:39:58.053Z,336.00
2019-05-29T02:40:58.038Z,336.00
2019-05-29T02:41:58.039Z,328.00
2019-05-29T02:42:58.016Z,296.00
2019-05-29T02:43:58.023Z,280.00
2019-05-29T02:44:57.998Z,260.00
2019-05-29T02:46:08.286Z,244.00
2019-05-29T02:46:57.997Z,232.00
2019-05-29T02:47:57.951Z,228.00
2019-05-29T02:48:57.956Z,208.00
2019-05-29T02:49:57.941Z,200.00
2019-05-29T02:50:57.945Z,200.00
2019-05-29T02:51:57.914Z,208.00
2019-05-29T02:52:57.923Z,208.00
2019-05-29T02:54:57.902Z,196.00
2019-05-29T02:55:57.882Z,188.00
2019-05-29T02:56:57.874Z,196.00
2019-05-29T02:57:57.842Z,208.00
2019-05-29T02:58:57.872Z,220.00
2019-05-29T02:59:57.843Z,228.00
2019-05-29T03:00:57.837Z,224.00
2019-05-29T03:01:57.812Z,232.00
2019-05-29T03:02:57.832Z,256.00
2019-05-29T03:03:57.800Z,248.00
2019-05-29T03:04:57.791Z,256.00
2019-05-29T03:05:57.796Z,260.00
2019-05-29T03:06:57.804Z,264.00
2019-05-29T03:07:57.761Z,236.00
2019-05-29T03:08:57.738Z,240.00
2019-05-29T03:09:57.743Z,236.00
2019-05-29T03:10:57.728Z,240.00
2019-05-29T03:12:00.243Z,244.00
2019-05-29T03:12:57.721Z,240.00
2019-05-29T03:13:57.678Z,232.00
2019-05-29T03:14:57.681Z,232.00
2019-05-29T03:16:09.513Z,260.00
2019-05-29T03:17:07.858Z,280.00
2019-05-29T03:17:57.644Z,300.00
2019-05-29T03:18:57.635Z,284.00
2019-05-29T03:19:57.613Z,276.00
2019-05-29T03:20:57.615Z,300.00
2019-05-29T03:21:57.607Z,320.00
2019-05-29T03:22:57.607Z,336.00
2019-05-29T03:23:57.585Z,328.00
2019-05-29T03:25:57.566Z,284.00
2019-05-29T03:26:57.559Z,264.00
2019-05-29T03:27:57.543Z,244.00
2019-05-29T03:28:57.539Z,236.00
2019-05-29T03:29:57.526Z,212.00
2019-05-29T03:30:57.519Z,200.00
2019-05-29T03:31:57.509Z,212.00
2019-05-29T03:32:57.510Z,220.00
2019-05-29T03:33:57.494Z,220.00
2019-05-29T03:34:57.462Z,216.00
2019-05-29T03:35:57.477Z,208.00
2019-05-29T03:36:57.446Z,192.00
2019-05-29T03:37:58.938Z,192.00
2019-05-29T03:38:57.465Z,204.00
2019-05-29T03:39:57.422Z,232.00
2019-05-29T03:40:57.402Z,284.00
2019-05-29T03:41:57.413Z,264.00
2019-05-29T03:42:57.391Z,276.00
2019-05-29T03:43:57.409Z,252.00
2019-05-29T03:44:57.369Z,292.00
2019-05-29T03:45:57.353Z,364.00
2019-05-29T03:46:57.344Z,396.00
2019-05-29T03:48:08.588Z,396.00
2019-05-29T03:48:57.323Z,424.00
2019-05-29T03:49:57.348Z,488.00
2019-05-29T03:50:57.307Z,540.00
2019-05-29T03:51:57.274Z,556.00
2019-05-29T03:52:57.285Z,532.00
2019-05-29T03:53:57.266Z,424.00
2019-05-29T03:54:57.251Z,360.00
2019-05-29T03:55:57.250Z,356.00
2019-05-29T03:57:57.217Z,348.00
2019-05-29T03:58:57.209Z,308.00
2019-05-29T03:59:57.192Z,264.00
2019-05-29T04:00:57.236Z,268.00
2019-05-29T04:01:57.178Z,256.00
2019-05-29T04:02:57.167Z,268.00
2019-05-29T04:03:57.153Z,248.00
2019-05-29T04:04:57.134Z,260.00
2019-05-29T04:05:57.145Z,256.00
2019-05-29T04:06:57.136Z,224.00
2019-05-29T04:07:57.117Z,236.00
2019-05-29T04:08:57.095Z,280.00
2019-05-29T04:09:57.096Z,324.00
2019-05-29T04:10:57.082Z,344.00
2019-05-29T04:11:57.075Z,360.00
2019-05-29T04:12:57.051Z,388.00
2019-05-29T04:13:57.049Z,396.00
2019-05-29T04:14:57.049Z,404.00
2019-05-29T04:15:57.066Z,428.00
2019-05-29T04:16:59.842Z,480.00
2019-05-29T04:17:57.009Z,548.00
2019-05-29T04:19:08.233Z,660.00
2019-05-29T04:19:56.987Z,752.00
2019-05-29T04:20:56.970Z,800.00
2019-05-29T04:21:56.965Z,744.00
2019-05-29T04:22:56.961Z,700.00
2019-05-29T04:23:56.955Z,648.00
2019-05-29T04:24:56.921Z,588.00
2019-05-29T04:25:56.921Z,532.00
2019-05-29T04:26:56.910Z,508.00
2019-05-29T04:27:56.940Z,476.00
2019-05-29T04:29:56.873Z,496.00
2019-05-29T04:30:56.860Z,444.00
2019-05-29T04:31:56.854Z,428.00
2019-05-29T04:32:56.888Z,408.00
2019-05-29T04:33:56.830Z,380.00
2019-05-29T04:34:56.832Z,384.00
2019-05-29T04:35:56.837Z,376.00
2019-05-29T04:36:56.807Z,372.00
2019-05-29T04:37:56.782Z,404.00
2019-05-29T04:38:56.883Z,404.00
2019-05-29T04:39:56.771Z,400.00
2019-05-29T04:40:56.776Z,396.00
2019-05-29T04:41:56.778Z,380.00
2019-05-29T04:42:56.743Z,372.00
2019-05-29T04:43:57.259Z,344.00
2019-05-29T04:44:56.709Z,320.00
2019-05-29T04:45:56.706Z,312.00
2019-05-29T04:47:10.084Z,284.00
2019-05-29T04:47:57.692Z,284.00
2019-05-29T04:48:56.667Z,260.00
2019-05-29T04:50:08.578Z,276.00
2019-05-29T04:50:56.644Z,284.00
2019-05-29T04:51:56.642Z,360.00
2019-05-29T04:52:56.619Z,424.00
2019-05-29T04:53:56.609Z,440.00
2019-05-29T04:54:56.619Z,404.00
2019-05-29T04:55:56.586Z,384.00
2019-05-29T04:56:56.588Z,368.00
2019-05-29T04:58:56.568Z,364.00
2019-05-29T04:59:56.569Z,348.00
2019-05-29T05:01:56.524Z,352.00
2019-05-29T05:02:56.516Z,360.00
2019-05-29T05:03:56.518Z,348.00
2019-05-29T05:04:56.494Z,360.00
2019-05-29T05:05:56.523Z,400.00
2019-05-29T05:06:56.488Z,408.00
2019-05-29T05:07:56.450Z,436.00
2019-05-29T05:08:56.515Z,448.00
2019-05-29T05:09:56.466Z,424.00
2019-05-29T05:10:56.446Z,416.00
2019-05-29T05:12:56.420Z,424.00
2019-05-29T05:13:56.398Z,432.00
2019-05-29T05:14:56.384Z,464.00
2019-05-29T05:15:56.435Z,468.00
2019-05-29T05:16:56.372Z,468.00
2019-05-29T05:17:56.363Z,468.00
2019-05-29T05:18:56.398Z,484.00
2019-05-29T05:19:56.332Z,492.00
2019-05-29T05:21:06.814Z,504.00
2019-05-29T05:21:57.041Z,512.00
2019-05-29T05:22:56.300Z,508.00
2019-05-29T05:23:56.287Z,564.00
2019-05-29T05:24:56.292Z,576.00
2019-05-29T05:25:56.284Z,600.00
2019-05-29T05:27:56.253Z,620.00
2019-05-29T05:29:56.231Z,588.00
2019-05-29T05:30:56.230Z,572.00
2019-05-29T05:31:56.217Z,552.00
2019-05-29T05:32:56.303Z,556.00
2019-05-29T05:52:07.960Z,864.00
2019-05-29T06:04:55.859Z,588.00
2019-05-29T06:23:06.644Z,660.00
2019-05-29T06:36:55.508Z,572.00
2019-05-29T06:54:05.523Z,744.00
2019-05-29T07:08:55.174Z,928.00
2019-05-29T07:25:05.304Z,1412.00
2019-05-29T07:29:54.941Z,1412.00
2019-05-29T07:40:54.831Z,1928.00
2019-05-29T07:41:54.816Z,2036.00
2019-05-29T07:42:56.605Z,2116.00
2019-05-29T07:43:54.823Z,2216.00
2019-05-29T07:44:54.792Z,2316.00
2019-05-29T07:45:54.759Z,2292.00
2019-05-29T07:46:54.761Z,2248.00
2019-05-29T07:47:54.769Z,2160.00
2019-05-29T07:48:54.804Z,2076.00
2019-05-29T07:49:54.765Z,2164.00
2019-05-29T07:51:06.696Z,2244.00
2019-05-29T07:51:55.764Z,2260.00
2019-05-29T07:52:54.710Z,2208.00
2019-05-29T07:53:54.723Z,2064.00
2019-05-29T07:54:54.686Z,2032.00
2019-05-29T07:56:05.161Z,1972.00
2019-05-29T07:56:55.163Z,1916.00
2019-05-29T07:57:54.641Z,2044.00
2019-05-29T07:59:02.608Z,2228.00
2019-05-29T07:59:55.621Z,2144.00
2019-05-29T08:01:11.773Z,2072.00
2019-05-29T08:01:55.615Z,2460.00
2019-05-29T08:02:54.604Z,2784.00
2019-05-29T08:04:54.609Z,2600.00
2019-05-29T08:05:54.586Z,2396.00
2019-05-29T08:06:54.788Z,2412.00
2019-05-29T08:07:54.541Z,2496.00
2019-05-29T08:08:54.547Z,2412.00
2019-05-29T08:09:54.522Z,2464.00
2019-05-29T08:10:54.510Z,2384.00
2019-05-29T08:11:54.489Z,2336.00
2019-05-29T08:12:55.940Z,2608.00
2019-05-29T08:13:54.479Z,2636.00
2019-05-29T08:14:54.504Z,2296.00
2019-05-29T08:16:02.533Z,2092.00
2019-05-29T08:16:55.442Z,2048.00
2019-05-29T08:17:54.442Z,2044.00
2019-05-29T08:18:54.764Z,1844.00
2019-05-29T08:20:06.130Z,1720.00
2019-05-29T08:20:55.419Z,1740.00
2019-05-29T08:21:54.436Z,1600.00
2019-05-29T08:22:54.391Z,1508.00
2019-05-29T08:23:54.383Z,1616.00
2019-05-29T08:24:54.384Z,1652.00
2019-05-29T08:25:54.359Z,1684.00
2019-05-29T08:27:04.712Z,1784.00
2019-05-29T08:27:54.318Z,1724.00
2019-05-29T08:28:54.290Z,1852.00
2019-05-29T08:29:54.292Z,2136.00
2019-05-29T08:30:56.542Z,2184.00
2019-05-29T08:31:54.281Z,2036.00
2019-05-29T08:32:54.278Z,1792.00
2019-05-29T08:33:54.249Z,1656.00
2019-05-29T08:35:59.836Z,1808.00
2019-05-29T08:37:06.509Z,1640.00
2019-05-29T08:37:55.253Z,1656.00
2019-05-29T08:38:54.213Z,1536.00
2019-05-29T08:39:54.283Z,1560.00
2019-05-29T08:40:54.191Z,1516.00
2019-05-29T08:42:19.553Z,1380.00
2019-05-29T08:42:55.162Z,1388.00
2019-05-29T08:43:54.154Z,1376.00
2019-05-29T08:44:54.141Z,1456.00
2019-05-29T08:45:54.129Z,1452.00
2019-05-29T08:47:09.160Z,1524.00
2019-05-29T08:47:55.152Z,1600.00
2019-05-29T08:48:54.123Z,1652.00
2019-05-29T08:49:54.711Z,1676.00
2019-05-29T08:50:54.090Z,1560.00
2019-05-29T08:52:10.442Z,1464.00
2019-05-29T08:52:55.108Z,1488.00
2019-05-29T08:53:54.857Z,1496.00
2019-05-29T08:54:54.029Z,1280.00
2019-05-29T08:55:54.008Z,1016.00
2019-05-29T08:56:54.058Z,1060.00
2019-05-29T08:58:04.158Z,1184.00
2019-05-29T08:58:53.992Z,1192.00
2019-05-29T08:59:54.050Z,1180.00
2019-05-29T09:00:55.359Z,1144.00
2019-05-29T09:01:55.602Z,1144.00
2019-05-29T09:02:53.990Z,1096.00
2019-05-29T09:03:53.979Z,972.00
2019-05-29T09:04:54.901Z,948.00
2019-05-29T09:06:53.950Z,892.00
2019-05-29T09:07:54.466Z,904.00
2019-05-29T09:08:55.006Z,896.00
2019-05-29T09:09:53.961Z,796.00
2019-05-29T09:10:54.414Z,752.00
2019-05-29T09:11:54.075Z,784.00
2019-05-29T09:13:03.667Z,916.00
2019-05-29T09:13:54.833Z,1008.00
2019-05-29T09:14:53.818Z,972.00
2019-05-29T09:15:53.818Z,948.00
2019-05-29T09:16:53.809Z,868.00
2019-05-29T09:17:53.866Z,796.00
2019-05-29T09:18:53.835Z,716.00
2019-05-29T09:19:53.793Z,716.00
2019-05-29T09:21:02.792Z,760.00
2019-05-29T09:21:54.745Z,748.00
2019-05-29T09:22:53.718Z,704.00
2019-05-29T09:23:53.728Z,708.00
2019-05-29T09:24:53.817Z,896.00
2019-05-29T09:25:53.739Z,1004.00
2019-05-29T09:26:53.689Z,940.00
2019-05-29T09:27:53.715Z,924.00
2019-05-29T09:29:05.422Z,956.00
2019-05-29T09:29:53.717Z,960.00
2019-05-29T09:30:53.647Z,1220.00
2019-05-29T09:31:53.630Z,1508.00
2019-05-29T09:32:53.635Z,1876.00
2019-05-29T09:33:53.607Z,2316.00
2019-05-29T09:34:53.658Z,2704.00
2019-05-29T09:35:53.608Z,3088.00
2019-05-29T09:36:55.759Z,3368.00
2019-05-29T09:37:53.565Z,3260.00
2019-05-29T09:38:53.896Z,3144.00
2019-05-29T09:39:53.572Z,2892.00
2019-05-29T09:40:53.572Z,2608.00
2019-05-29T09:41:53.549Z,2400.00
2019-05-29T09:42:53.546Z,2372.00
2019-05-29T09:43:59.224Z,2284.00
2019-05-29T09:44:54.498Z,1748.00
2019-05-29T09:45:53.498Z,1272.00
2019-05-29T09:46:53.499Z,972.00
2019-05-29T09:47:53.528Z,848.00
2019-05-29T09:48:53.457Z,960.00
2019-05-29T09:49:53.477Z,1028.00
2019-05-29T09:50:53.487Z,1112.00
2019-05-29T09:51:54.141Z,1336.00
2019-05-29T09:52:55.349Z,1828.00
2019-05-29T09:53:54.497Z,1840.00
2019-05-29T09:54:54.640Z,1524.00
2019-05-29T09:55:54.233Z,1392.00
2019-05-29T09:56:54.719Z,1416.00
2019-05-29T09:57:54.124Z,1544.00
2019-05-29T09:58:55.238Z,1748.00
2019-05-29T10:00:04.889Z,1600.00
2019-05-29T10:01:15.410Z,1360.00
2019-05-29T10:01:56.341Z,1016.00
2019-05-29T10:02:55.443Z,728.00
2019-05-29T10:03:55.342Z,820.00
2019-05-29T10:04:54.793Z,988.00
2019-05-29T10:05:54.653Z,1112.00
2019-05-29T10:06:54.916Z,1228.00
2019-05-29T10:07:54.531Z,1536.00
2019-05-29T10:08:54.973Z,1844.00
2019-05-29T10:09:54.840Z,2068.00
2019-05-29T10:11:03.937Z,2384.00
2019-05-29T10:11:58.038Z,3028.00
2019-05-29T10:12:55.246Z,3604.00
2019-05-29T10:13:53.914Z,4164.00
2019-05-29T10:14:53.695Z,5520.00
2019-05-29T10:15:54.044Z,5184.00
2019-05-29T10:16:56.012Z,5416.00
2019-05-29T10:17:54.109Z,5116.00
2019-05-29T10:18:54.263Z,5328.00
2019-05-29T10:19:55.419Z,5236.00
2019-05-29T10:20:53.105Z,5196.00
2019-05-29T10:21:53.095Z,5304.00
2019-05-29T10:22:53.155Z,4136.00
2019-05-29T10:23:53.087Z,5224.00
2019-05-29T10:24:53.087Z,3960.00
2019-05-29T10:25:53.063Z,2656.00
2019-05-29T10:26:53.045Z,2404.00
2019-05-29T10:27:53.103Z,2388.00
2019-05-29T10:29:54.323Z,1920.00
2019-05-29T10:31:04.834Z,2108.00
2019-05-29T10:31:53.593Z,2492.00
2019-05-29T10:32:53.109Z,2956.00
2019-05-29T10:33:52.966Z,3584.00
2019-05-29T10:34:38.797Z,2268.00
2019-05-29T10:34:52.966Z,3376.00
2019-05-29T10:35:55.304Z,3180.00
2019-05-29T10:36:54.632Z,3060.00
2019-05-29T10:37:53.124Z,2768.00
2019-05-29T10:38:52.926Z,2424.00
2019-05-29T10:39:53.074Z,2156.00
2019-05-29T10:41:05.298Z,2280.00
2019-05-29T10:41:53.907Z,2612.00
2019-05-29T10:42:53.510Z,2724.00
2019-05-29T10:43:53.339Z,2776.00
2019-05-29T10:44:53.280Z,2504.00
2019-05-29T10:45:54.058Z,2180.00
2019-05-29T10:46:54.691Z,2080.00
2019-05-29T10:47:54.110Z,2304.00
2019-05-29T10:48:55.959Z,3140.00
2019-05-29T10:49:53.841Z,2544.00
2019-05-29T10:50:54.148Z,2112.00
2019-05-29T10:52:05.768Z,1928.00
2019-05-29T10:52:54.234Z,1856.00
2019-05-29T10:53:56.038Z,1996.00
2019-05-29T10:54:54.453Z,2392.00
2019-05-29T10:55:52.775Z,2788.00
2019-05-29T10:56:53.068Z,3312.00
2019-05-29T10:57:53.189Z,3640.00
2019-05-29T10:58:58.985Z,3684.00
2019-05-29T10:59:54.691Z,3588.00
2019-05-29T11:00:53.405Z,3608.00
2019-05-29T11:02:02.886Z,3556.00
2019-05-29T11:02:55.181Z,3284.00
2019-05-29T11:03:53.906Z,2824.00
2019-05-29T11:04:56.396Z,2408.00
2019-05-29T11:05:53.837Z,2140.00
2019-05-29T11:06:54.629Z,1684.00
2019-05-29T11:07:53.823Z,1512.00
2019-05-29T11:08:54.033Z,1416.00
2019-05-29T11:09:52.615Z,1480.00
2019-05-29T11:10:52.584Z,1704.00
2019-05-29T11:11:53.252Z,1984.00
2019-05-29T11:12:52.742Z,2268.00
2019-05-29T11:13:52.864Z,2936.00
2019-05-29T11:14:52.946Z,3452.00
2019-05-29T11:15:52.840Z,3612.00
2019-05-29T11:16:53.380Z,3748.00
2019-05-29T11:17:53.256Z,3652.00
2019-05-29T11:18:53.392Z,3416.00
2019-05-29T11:19:53.567Z,3536.00
2019-05-29T11:20:53.466Z,3932.00
2019-05-29T11:21:53.853Z,3996.00
2019-05-29T11:22:53.576Z,4120.00
2019-05-29T11:23:53.640Z,4988.00
2019-05-29T11:24:52.552Z,5024.00
2019-05-29T11:25:52.448Z,5892.00
2019-05-29T11:26:52.646Z,4572.00
2019-05-29T11:27:53.208Z,7136.00
2019-05-29T11:28:52.463Z,6680.00
2019-05-29T11:29:53.316Z,4460.00
2019-05-29T11:30:53.674Z,3728.00
2019-05-29T11:31:53.414Z,3740.00
2019-05-29T11:33:04.424Z,3660.00
2019-05-29T11:33:53.074Z,3532.00
2019-05-29T11:34:53.695Z,3048.00
2019-05-29T11:36:05.994Z,3352.00
2019-05-29T11:36:54.261Z,3124.00
2019-05-29T11:37:52.606Z,2712.00
2019-05-29T11:38:52.565Z,2456.00
2019-05-29T11:39:52.640Z,2052.00
2019-05-29T11:41:13.862Z,1648.00
2019-05-29T11:41:53.247Z,1856.00
2019-05-29T11:42:52.789Z,2236.00
2019-05-29T11:43:52.691Z,2444.00
2019-05-29T11:44:53.474Z,2572.00
2019-05-29T11:45:53.134Z,2648.00
2019-05-29T11:46:52.235Z,2636.00
2019-05-29T11:47:54.044Z,2360.00
2019-05-29T11:48:53.145Z,2052.00
2019-05-29T11:49:53.137Z,1972.00
2019-05-29T11:50:52.230Z,1852.00
2019-05-29T11:51:53.638Z,1772.00
2019-05-29T11:52:52.355Z,1796.00
2019-05-29T11:53:53.307Z,1780.00
2019-05-29T11:54:55.936Z,1856.00
2019-05-29T11:55:53.993Z,1888.00
2019-05-29T11:56:53.724Z,1836.00
2019-05-29T11:57:52.110Z,2012.00
2019-05-29T11:58:52.736Z,2328.00
2019-05-29T11:59:52.065Z,2648.00
2019-05-29T12:00:52.914Z,2968.00
2019-05-29T12:01:52.927Z,3236.00
2019-05-29T12:02:53.636Z,3556.00
2019-05-29T12:04:23.136Z,4064.00
2019-05-29T12:04:53.149Z,3312.00
2019-05-29T12:05:53.369Z,3056.00
2019-05-29T12:06:53.103Z,2916.00
2019-05-29T12:07:53.327Z,2808.00
2019-05-29T12:08:51.957Z,2648.00
2019-05-29T12:09:53.220Z,2464.00
2019-05-29T12:10:52.999Z,2476.00
2019-05-29T12:11:53.628Z,2472.00
2019-05-29T12:12:53.260Z,2376.00
2019-05-29T12:13:51.910Z,2272.00
2019-05-29T12:15:00.301Z,2096.00
2019-05-29T12:15:53.659Z,2116.00
2019-05-29T12:16:51.881Z,2164.00
2019-05-29T12:17:59.125Z,2368.00
2019-05-29T12:18:53.638Z,2384.00
2019-05-29T12:19:51.948Z,2296.00
2019-05-29T12:20:52.121Z,2360.00
2019-05-29T12:21:52.287Z,2404.00
2019-05-29T12:23:13.319Z,2364.00
2019-05-29T12:23:53.927Z,2264.00
2019-05-29T12:24:52.539Z,2184.00
2019-05-29T12:26:11.612Z,2208.00
2019-05-29T12:26:52.827Z,2204.00
2019-05-29T12:27:52.738Z,2092.00
2019-05-29T12:28:53.482Z,2040.00
2019-05-29T12:29:52.597Z,1992.00
2019-05-29T12:30:53.341Z,1992.00
2019-05-29T12:31:52.876Z,2036.00
2019-05-29T12:32:52.721Z,2032.00
2019-05-29T12:33:52.823Z,1940.00
2019-05-29T12:35:04.402Z,1812.00
2019-05-29T12:35:52.783Z,1756.00
2019-05-29T12:36:51.653Z,1644.00
2019-05-29T12:37:51.643Z,1536.00
2019-05-29T12:38:51.656Z,1424.00
2019-05-29T12:39:51.647Z,1256.00
2019-05-29T12:40:51.605Z,1184.00
2019-05-29T12:41:51.601Z,1208.00
2019-05-29T12:42:51.665Z,1320.00
2019-05-29T12:43:51.645Z,1480.00
2019-05-29T12:44:51.591Z,1632.00
2019-05-29T12:45:51.707Z,1832.00
2019-05-29T12:46:51.552Z,2040.00
2019-05-29T12:47:51.552Z,2356.00
2019-05-29T12:48:51.532Z,2504.00
2019-05-29T12:49:51.545Z,2600.00
2019-05-29T12:50:51.514Z,2632.00
2019-05-29T12:51:51.501Z,2724.00
2019-05-29T12:52:51.484Z,2812.00
2019-05-29T12:53:51.490Z,3008.00
2019-05-29T12:54:51.508Z,3164.00
2019-05-29T12:55:51.456Z,3256.00
2019-05-29T12:56:51.648Z,3224.00
2019-05-29T12:57:51.451Z,3312.00
2019-05-29T12:58:51.482Z,3560.00
2019-05-29T12:59:51.446Z,4348.00
2019-05-29T13:00:51.501Z,4944.00
2019-05-29T13:01:51.393Z,4488.00
2019-05-29T13:02:51.384Z,4744.00
2019-05-29T13:03:51.406Z,4812.00
2019-05-29T13:05:07.194Z,4580.00
2019-05-29T13:06:02.469Z,3952.00
2019-05-29T13:06:51.351Z,3568.00
2019-05-29T13:07:51.324Z,3376.00
2019-05-29T13:08:51.340Z,3280.00
2019-05-29T13:09:51.299Z,3140.00
2019-05-29T13:10:51.305Z,3036.00
2019-05-29T13:11:51.283Z,2840.00
2019-05-29T13:12:51.803Z,2628.00
2019-05-29T13:13:51.272Z,2528.00
2019-05-29T13:14:51.305Z,2516.00
2019-05-29T13:15:51.411Z,2544.00
2019-05-29T13:16:51.328Z,2764.00
2019-05-29T13:17:55.554Z,2952.00
2019-05-29T13:18:52.221Z,3132.00
2019-05-29T13:19:51.203Z,3216.00
2019-05-29T13:20:51.214Z,3180.00
2019-05-29T13:21:51.196Z,3264.00
2019-05-29T13:22:51.173Z,3468.00
2019-05-29T13:23:51.177Z,3628.00
2019-05-29T13:24:52.846Z,3752.00
2019-05-29T13:25:51.159Z,3784.00
2019-05-29T13:26:51.184Z,3828.00
2019-05-29T13:27:51.134Z,3908.00
2019-05-29T13:28:51.130Z,3960.00
2019-05-29T13:29:51.170Z,4060.00
2019-05-29T13:30:51.139Z,4740.00
2019-05-29T13:31:53.298Z,4432.00
2019-05-29T13:32:51.122Z,5116.00
2019-05-29T13:33:51.084Z,4620.00
2019-05-29T13:34:51.050Z,4248.00
2019-05-29T13:35:51.035Z,4236.00
2019-05-29T13:37:06.679Z,4312.00
2019-05-29T13:37:52.003Z,4864.00
2019-05-29T13:38:50.997Z,4760.00
2019-05-29T13:39:50.983Z,5376.00
2019-05-29T13:40:50.995Z,5624.00
2019-05-29T13:41:50.986Z,4940.00
2019-05-29T13:42:50.953Z,5108.00
2019-05-29T13:43:50.962Z,4956.00
2019-05-29T13:44:51.001Z,4796.00
2019-05-29T13:45:50.946Z,4160.00
2019-05-29T13:46:50.973Z,3416.00
2019-05-29T13:47:50.914Z,3788.00
2019-05-29T13:48:50.901Z,3080.00
2019-05-29T13:49:51.631Z,2992.00
2019-05-29T13:50:50.892Z,3032.00
2019-05-29T13:51:50.983Z,3616.00
2019-05-29T13:52:50.861Z,3144.00
2019-05-29T13:54:02.519Z,3064.00
2019-05-29T13:54:51.835Z,3020.00
2019-05-29T13:55:50.828Z,3108.00
2019-05-29T13:56:50.936Z,4368.00
2019-05-29T13:57:50.821Z,3460.00
2019-05-29T13:58:50.795Z,3672.00
2019-05-29T13:59:50.782Z,5116.00
2019-05-29T14:00:50.766Z,4980.00
2019-05-29T14:01:50.752Z,4696.00
2019-05-29T14:02:50.839Z,4824.00
2019-05-29T14:03:50.876Z,4884.00
2019-05-29T14:04:50.746Z,5020.00
2019-05-29T14:05:50.754Z,5396.00
2019-05-29T14:06:52.889Z,3248.00
2019-05-29T14:08:00.976Z,3268.00
2019-05-29T14:08:50.703Z,5464.00
2019-05-29T14:09:50.689Z,3636.00
2019-05-29T14:10:50.676Z,5204.00
2019-05-29T14:11:50.642Z,5360.00
2019-05-29T14:12:50.638Z,5200.00
2019-05-29T14:13:50.659Z,4756.00
2019-05-29T14:14:50.626Z,5288.00
2019-05-29T14:15:50.618Z,5352.00
2019-05-29T14:16:50.596Z,5244.00
2019-05-29T14:17:50.596Z,5132.00
2019-05-29T14:18:50.690Z,5036.00
2019-05-29T14:19:50.564Z,3944.00
2019-05-29T14:20:50.578Z,5100.00
2019-05-29T14:21:50.554Z,5056.00
2019-05-29T14:22:50.534Z,5048.00
2019-05-29T14:23:50.525Z,4520.00
2019-05-29T14:24:50.550Z,4632.00
2019-05-29T14:25:50.497Z,5200.00
2019-05-29T14:26:50.536Z,5052.00
2019-05-29T14:27:50.508Z,4928.00
2019-05-29T14:28:50.520Z,4864.00
2019-05-29T14:29:50.505Z,4780.00
2019-05-29T14:30:50.459Z,4756.00
2019-05-29T14:31:50.444Z,4628.00
2019-05-29T14:32:50.448Z,4556.00
2019-05-29T14:33:50.428Z,4516.00
2019-05-29T14:34:50.442Z,3068.00
2019-05-29T14:35:50.395Z,2264.00
2019-05-29T14:36:50.385Z,2092.00
2019-05-29T14:39:03.711Z,2280.00
2019-05-29T14:39:50.352Z,2044.00
2019-05-29T14:40:50.339Z,1972.00
2019-05-29T14:41:50.338Z,1944.00
2019-05-29T14:42:50.318Z,1832.00
2019-05-29T14:43:50.313Z,1768.00
2019-05-29T14:44:50.354Z,1812.00
2019-05-29T14:45:50.301Z,1948.00
2019-05-29T14:47:50.261Z,2684.00
2019-05-29T14:48:50.243Z,2352.00
2019-05-29T14:49:50.250Z,2500.00
2019-05-29T14:50:50.243Z,2528.00
2019-05-29T14:51:50.352Z,2596.00
2019-05-29T14:52:50.205Z,2548.00
2019-05-29T14:53:50.202Z,4788.00
2019-05-29T14:54:50.203Z,4720.00
2019-05-29T14:55:50.232Z,4652.00
2019-05-29T14:56:50.211Z,4608.00
2019-05-29T14:57:50.160Z,4540.00
2019-05-29T14:58:50.190Z,4528.00
2019-05-29T14:59:50.290Z,4560.00
2019-05-29T15:01:51.371Z,3452.00
2019-05-29T15:02:50.109Z,2164.00
2019-05-29T15:03:50.124Z,2276.00
2019-05-29T15:04:50.096Z,2792.00
2019-05-29T15:05:50.070Z,4812.00
2019-05-29T15:06:50.084Z,4864.00
2019-05-29T15:07:50.057Z,4720.00
2019-05-29T15:10:00.557Z,2520.00
2019-05-29T15:15:49.975Z,4684.00
2019-05-29T15:40:59.673Z,2020.00
2019-05-29T15:57:49.519Z,1804.00
2019-05-29T15:59:49.547Z,1924.00
2019-05-29T16:00:49.532Z,2124.00
2019-05-29T16:03:49.449Z,3068.00